sensor_id;sensor_type;location;lat;lon;timestamp;temperature;humidity
6102;DHT22;3081;50.584;7.032;2023-07-13T00:01:45;16.90;92.40
6102;DHT22;3081;50.584;7.032;2023-07-13T00:04:16;16.90;92.60
6102;DHT22;3081;50.584;7.032;2023-07-13T00:06:43;16.90;92.80
6102;DHT22;3081;50.584;7.032;2023-07-13T00:09:11;16.80;92.90
6102;DHT22;3081;50.584;7.032;2023-07-13T00:11:39;16.80;93.00
6102;DHT22;3081;50.584;7.032;2023-07-13T00:14:06;16.80;92.90
6102;DHT22;3081;50.584;7.032;2023-07-13T00:16:34;16.80;93.10
6102;DHT22;3081;50.584;7.032;2023-07-13T00:19:03;16.80;93.30
6102;DHT22;3081;50.584;7.032;2023-07-13T00:21:30;16.80;93.50
6102;DHT22;3081;50.584;7.032;2023-07-13T00:23:57;16.80;93.70
6102;DHT22;3081;50.584;7.032;2023-07-13T00:26:26;16.70;93.90
6102;DHT22;3081;50.584;7.032;2023-07-13T00:28:53;16.60;94.00
6102;DHT22;3081;50.584;7.032;2023-07-13T00:31:19;16.60;93.90
6102;DHT22;3081;50.584;7.032;2023-07-13T00:33:46;16.70;93.90
6102;DHT22;3081;50.584;7.032;2023-07-13T00:36:15;16.70;94.00
6102;DHT22;3081;50.584;7.032;2023-07-13T00:38:42;16.70;94.00
6102;DHT22;3081;50.584;7.032;2023-07-13T00:41:10;16.70;94.10
6102;DHT22;3081;50.584;7.032;2023-07-13T00:43:37;16.70;94.10
6102;DHT22;3081;50.584;7.032;2023-07-13T00:46:23;16.70;94.10
6102;DHT22;3081;50.584;7.032;2023-07-13T00:48:51;16.70;94.10
6102;DHT22;3081;50.584;7.032;2023-07-13T00:51:30;16.70;94.20
6102;DHT22;3081;50.584;7.032;2023-07-13T00:54:00;16.60;94.10
6102;DHT22;3081;50.584;7.032;2023-07-13T00:56:29;16.70;94.10
6102;DHT22;3081;50.584;7.032;2023-07-13T00:58:57;16.70;94.60
6102;DHT22;3081;50.584;7.032;2023-07-13T01:01:24;16.60;94.40
6102;DHT22;3081;50.584;7.032;2023-07-13T01:03:51;16.50;94.50
6102;DHT22;3081;50.584;7.032;2023-07-13T01:06:21;16.50;94.60
6102;DHT22;3081;50.584;7.032;2023-07-13T01:08:47;16.50;94.70
6102;DHT22;3081;50.584;7.032;2023-07-13T01:11:19;16.50;94.70
6102;DHT22;3081;50.584;7.032;2023-07-13T01:13:46;16.50;95.10
6102;DHT22;3081;50.584;7.032;2023-07-13T01:16:17;16.40;95.30
6102;DHT22;3081;50.584;7.032;2023-07-13T01:18:46;16.30;95.40
6102;DHT22;3081;50.584;7.032;2023-07-13T01:21:14;16.30;95.50
6102;DHT22;3081;50.584;7.032;2023-07-13T01:23:41;16.30;95.60
6102;DHT22;3081;50.584;7.032;2023-07-13T01:26:09;16.20;95.80
6102;DHT22;3081;50.584;7.032;2023-07-13T01:28:37;16.30;95.80
6102;DHT22;3081;50.584;7.032;2023-07-13T01:31:04;16.30;95.80
6102;DHT22;3081;50.584;7.032;2023-07-13T01:33:31;16.20;96.00
6102;DHT22;3081;50.584;7.032;2023-07-13T01:36:00;16.10;96.20
6102;DHT22;3081;50.584;7.032;2023-07-13T01:38:29;16.10;96.40
6102;DHT22;3081;50.584;7.032;2023-07-13T01:40:56;16.10;96.70
6102;DHT22;3081;50.584;7.032;2023-07-13T01:43:22;16.00;97.00
6102;DHT22;3081;50.584;7.032;2023-07-13T01:45:49;15.90;97.10
6102;DHT22;3081;50.584;7.032;2023-07-13T01:48:16;16.00;97.20
6102;DHT22;3081;50.584;7.032;2023-07-13T01:50:43;16.00;97.10
6102;DHT22;3081;50.584;7.032;2023-07-13T01:53:11;16.00;97.10
6102;DHT22;3081;50.584;7.032;2023-07-13T01:55:39;16.00;97.10
6102;DHT22;3081;50.584;7.032;2023-07-13T01:58:06;16.10;97.20
6102;DHT22;3081;50.584;7.032;2023-07-13T02:00:33;16.10;97.20
6102;DHT22;3081;50.584;7.032;2023-07-13T02:03:00;16.10;97.40
6102;DHT22;3081;50.584;7.032;2023-07-13T02:05:27;16.00;97.60
6102;DHT22;3081;50.584;7.032;2023-07-13T02:07:54;15.90;97.70
6102;DHT22;3081;50.584;7.032;2023-07-13T02:10:21;15.80;97.90
6102;DHT22;3081;50.584;7.032;2023-07-13T02:12:50;15.80;98.10
6102;DHT22;3081;50.584;7.032;2023-07-13T02:15:18;15.80;98.20
6102;DHT22;3081;50.584;7.032;2023-07-13T02:17:45;15.80;98.40
6102;DHT22;3081;50.584;7.032;2023-07-13T02:20:11;15.80;98.40
6102;DHT22;3081;50.584;7.032;2023-07-13T02:22:38;15.80;98.60
6102;DHT22;3081;50.584;7.032;2023-07-13T02:25:06;15.70;98.70
6102;DHT22;3081;50.584;7.032;2023-07-13T02:27:33;15.60;99.00
6102;DHT22;3081;50.584;7.032;2023-07-13T02:30:01;15.50;99.20
6102;DHT22;3081;50.584;7.032;2023-07-13T02:32:28;15.50;99.50
6102;DHT22;3081;50.584;7.032;2023-07-13T02:34:55;15.50;99.80
6102;DHT22;3081;50.584;7.032;2023-07-13T02:37:22;15.40;99.90
6102;DHT22;3081;50.584;7.032;2023-07-13T02:39:49;15.40;99.90
6102;DHT22;3081;50.584;7.032;2023-07-13T02:42:16;15.40;99.90
6102;DHT22;3081;50.584;7.032;2023-07-13T02:44:43;15.40;99.90
6102;DHT22;3081;50.584;7.032;2023-07-13T02:47:11;15.40;99.90
6102;DHT22;3081;50.584;7.032;2023-07-13T02:49:38;15.40;99.90
6102;DHT22;3081;50.584;7.032;2023-07-13T02:52:06;15.30;99.90
6102;DHT22;3081;50.584;7.032;2023-07-13T02:54:33;15.30;99.90
6102;DHT22;3081;50.584;7.032;2023-07-13T02:57:00;15.40;99.90
6102;DHT22;3081;50.584;7.032;2023-07-13T02:59:27;15.40;99.90
6102;DHT22;3081;50.584;7.032;2023-07-13T03:01:54;15.40;99.90
6102;DHT22;3081;50.584;7.032;2023-07-13T03:04:22;15.30;99.90
6102;DHT22;3081;50.584;7.032;2023-07-13T03:06:49;15.40;99.90
6102;DHT22;3081;50.584;7.032;2023-07-13T03:09:16;15.30;99.90
6102;DHT22;3081;50.584;7.032;2023-07-13T03:11:43;15.30;99.90
6102;DHT22;3081;50.584;7.032;2023-07-13T03:14:10;15.30;99.90
6102;DHT22;3081;50.584;7.032;2023-07-13T03:16:37;15.20;99.90
6102;DHT22;3081;50.584;7.032;2023-07-13T03:19:04;15.20;99.90
6102;DHT22;3081;50.584;7.032;2023-07-13T03:21:32;15.10;99.90
6102;DHT22;3081;50.584;7.032;2023-07-13T03:23:59;15.10;99.90
6102;DHT22;3081;50.584;7.032;2023-07-13T03:26:26;15.10;99.90
6102;DHT22;3081;50.584;7.032;2023-07-13T03:28:53;15.10;99.90
6102;DHT22;3081;50.584;7.032;2023-07-13T03:31:22;15.10;99.90
6102;DHT22;3081;50.584;7.032;2023-07-13T03:33:50;15.10;99.90
6102;DHT22;3081;50.584;7.032;2023-07-13T03:36:19;15.10;99.90
6102;DHT22;3081;50.584;7.032;2023-07-13T03:38:50;15.10;99.90
6102;DHT22;3081;50.584;7.032;2023-07-13T03:41:18;15.20;99.90
6102;DHT22;3081;50.584;7.032;2023-07-13T03:43:45;15.20;99.90
6102;DHT22;3081;50.584;7.032;2023-07-13T03:46:13;15.30;99.90
6102;DHT22;3081;50.584;7.032;2023-07-13T03:48:41;15.30;99.90
6102;DHT22;3081;50.584;7.032;2023-07-13T03:51:10;15.30;99.90
6102;DHT22;3081;50.584;7.032;2023-07-13T03:53:40;15.30;99.90
6102;DHT22;3081;50.584;7.032;2023-07-13T03:56:09;15.30;99.90
6102;DHT22;3081;50.584;7.032;2023-07-13T03:58:38;15.40;99.90
6102;DHT22;3081;50.584;7.032;2023-07-13T04:01:07;15.30;99.90
6102;DHT22;3081;50.584;7.032;2023-07-13T04:03:34;15.40;99.90
6102;DHT22;3081;50.584;7.032;2023-07-13T04:06:02;15.40;99.90
6102;DHT22;3081;50.584;7.032;2023-07-13T04:08:33;15.50;99.90
6102;DHT22;3081;50.584;7.032;2023-07-13T04:11:00;15.50;99.90
6102;DHT22;3081;50.584;7.032;2023-07-13T04:13:29;15.50;99.90
6102;DHT22;3081;50.584;7.032;2023-07-13T04:15:56;15.50;99.90
6102;DHT22;3081;50.584;7.032;2023-07-13T04:18:23;15.60;99.90
6102;DHT22;3081;50.584;7.032;2023-07-13T04:20:51;15.60;99.90
6102;DHT22;3081;50.584;7.032;2023-07-13T04:23:18;15.60;99.90
6102;DHT22;3081;50.584;7.032;2023-07-13T04:25:45;15.60;99.90
6102;DHT22;3081;50.584;7.032;2023-07-13T04:28:12;15.50;99.90
6102;DHT22;3081;50.584;7.032;2023-07-13T04:30:40;15.50;99.90
6102;DHT22;3081;50.584;7.032;2023-07-13T04:33:07;15.40;99.90
6102;DHT22;3081;50.584;7.032;2023-07-13T04:35:34;15.40;99.90
6102;DHT22;3081;50.584;7.032;2023-07-13T04:38:03;15.40;99.90
6102;DHT22;3081;50.584;7.032;2023-07-13T04:40:30;15.40;99.90
6102;DHT22;3081;50.584;7.032;2023-07-13T04:42:57;15.40;99.90
6102;DHT22;3081;50.584;7.032;2023-07-13T04:45:24;15.50;99.90
6102;DHT22;3081;50.584;7.032;2023-07-13T04:47:52;15.60;99.90
6102;DHT22;3081;50.584;7.032;2023-07-13T04:50:19;15.70;99.90
6102;DHT22;3081;50.584;7.032;2023-07-13T04:52:49;15.80;99.90
6102;DHT22;3081;50.584;7.032;2023-07-13T04:55:16;15.90;99.90
6102;DHT22;3081;50.584;7.032;2023-07-13T04:57:44;16.00;99.90
6102;DHT22;3081;50.584;7.032;2023-07-13T05:00:12;16.20;99.90
6102;DHT22;3081;50.584;7.032;2023-07-13T05:02:39;16.50;99.90
6102;DHT22;3081;50.584;7.032;2023-07-13T05:05:08;16.60;99.90
6102;DHT22;3081;50.584;7.032;2023-07-13T05:07:35;16.70;99.90
6102;DHT22;3081;50.584;7.032;2023-07-13T05:10:02;16.70;99.90
6102;DHT22;3081;50.584;7.032;2023-07-13T05:12:29;16.70;99.90
6102;DHT22;3081;50.584;7.032;2023-07-13T05:14:56;16.70;99.90
6102;DHT22;3081;50.584;7.032;2023-07-13T05:17:23;16.70;99.90
6102;DHT22;3081;50.584;7.032;2023-07-13T05:19:50;16.70;99.90
6102;DHT22;3081;50.584;7.032;2023-07-13T05:22:18;16.60;99.90
6102;DHT22;3081;50.584;7.032;2023-07-13T05:24:45;16.70;99.90
6102;DHT22;3081;50.584;7.032;2023-07-13T05:27:12;16.70;99.90
6102;DHT22;3081;50.584;7.032;2023-07-13T05:29:39;16.80;99.90
6102;DHT22;3081;50.584;7.032;2023-07-13T05:32:06;16.90;99.90
6102;DHT22;3081;50.584;7.032;2023-07-13T05:34:33;17.00;99.90
6102;DHT22;3081;50.584;7.032;2023-07-13T05:37:00;17.00;99.90
6102;DHT22;3081;50.584;7.032;2023-07-13T05:39:28;17.00;99.90
6102;DHT22;3081;50.584;7.032;2023-07-13T05:41:55;16.90;99.90
6102;DHT22;3081;50.584;7.032;2023-07-13T05:44:22;16.80;99.90
6102;DHT22;3081;50.584;7.032;2023-07-13T05:46:49;16.80;99.90
6102;DHT22;3081;50.584;7.032;2023-07-13T05:49:16;16.80;99.90
6102;DHT22;3081;50.584;7.032;2023-07-13T05:51:43;16.80;99.90
6102;DHT22;3081;50.584;7.032;2023-07-13T05:54:10;16.80;99.90
6102;DHT22;3081;50.584;7.032;2023-07-13T05:56:38;16.90;99.90
6102;DHT22;3081;50.584;7.032;2023-07-13T05:59:05;17.00;99.90
6102;DHT22;3081;50.584;7.032;2023-07-13T06:01:32;17.10;99.90
6102;DHT22;3081;50.584;7.032;2023-07-13T06:03:59;17.30;99.90
6102;DHT22;3081;50.584;7.032;2023-07-13T06:06:26;17.60;99.90
6102;DHT22;3081;50.584;7.032;2023-07-13T06:08:53;17.70;99.90
6102;DHT22;3081;50.584;7.032;2023-07-13T06:11:22;17.80;99.90
6102;DHT22;3081;50.584;7.032;2023-07-13T06:13:50;17.90;99.90
6102;DHT22;3081;50.584;7.032;2023-07-13T06:16:18;18.10;99.90
6102;DHT22;3081;50.584;7.032;2023-07-13T06:18:45;18.30;99.90
6102;DHT22;3081;50.584;7.032;2023-07-13T06:21:15;18.50;99.90
6102;DHT22;3081;50.584;7.032;2023-07-13T06:23:42;18.50;99.90
6102;DHT22;3081;50.584;7.032;2023-07-13T06:26:10;18.60;99.90
6102;DHT22;3081;50.584;7.032;2023-07-13T06:28:37;18.60;99.90
6102;DHT22;3081;50.584;7.032;2023-07-13T06:31:08;18.60;99.90
6102;DHT22;3081;50.584;7.032;2023-07-13T06:33:35;18.80;99.90
6102;DHT22;3081;50.584;7.032;2023-07-13T06:36:03;18.80;99.90
6102;DHT22;3081;50.584;7.032;2023-07-13T06:38:31;18.90;99.90
6102;DHT22;3081;50.584;7.032;2023-07-13T06:40:58;19.00;99.90
6102;DHT22;3081;50.584;7.032;2023-07-13T06:43:25;19.20;99.90
6102;DHT22;3081;50.584;7.032;2023-07-13T06:45:55;19.30;99.90
6102;DHT22;3081;50.584;7.032;2023-07-13T06:48:24;19.30;99.90
6102;DHT22;3081;50.584;7.032;2023-07-13T06:50:51;19.30;99.90
6102;DHT22;3081;50.584;7.032;2023-07-13T06:53:19;19.40;99.90
6102;DHT22;3081;50.584;7.032;2023-07-13T06:55:46;19.40;99.90
6102;DHT22;3081;50.584;7.032;2023-07-13T06:58:15;19.50;99.90
6102;DHT22;3081;50.584;7.032;2023-07-13T07:00:42;19.50;99.90
6102;DHT22;3081;50.584;7.032;2023-07-13T07:03:09;19.50;99.90
6102;DHT22;3081;50.584;7.032;2023-07-13T07:05:37;19.60;99.90
6102;DHT22;3081;50.584;7.032;2023-07-13T07:08:04;19.60;99.90
6102;DHT22;3081;50.584;7.032;2023-07-13T07:10:31;19.70;99.90
6102;DHT22;3081;50.584;7.032;2023-07-13T07:12:58;19.90;99.90
6102;DHT22;3081;50.584;7.032;2023-07-13T07:15:25;20.10;99.90
6102;DHT22;3081;50.584;7.032;2023-07-13T07:17:52;20.20;99.90
6102;DHT22;3081;50.584;7.032;2023-07-13T07:20:19;20.30;99.90
6102;DHT22;3081;50.584;7.032;2023-07-13T07:22:48;20.40;99.90
6102;DHT22;3081;50.584;7.032;2023-07-13T07:25:15;20.40;99.90
6102;DHT22;3081;50.584;7.032;2023-07-13T07:27:42;20.40;99.90
6102;DHT22;3081;50.584;7.032;2023-07-13T07:30:10;20.50;99.60
6102;DHT22;3081;50.584;7.032;2023-07-13T07:32:37;20.50;99.30
6102;DHT22;3081;50.584;7.032;2023-07-13T07:35:05;20.50;98.30
6102;DHT22;3081;50.584;7.032;2023-07-13T07:37:32;20.50;98.80
6102;DHT22;3081;50.584;7.032;2023-07-13T07:40:00;20.60;98.60
6102;DHT22;3081;50.584;7.032;2023-07-13T07:42:27;20.70;98.60
6102;DHT22;3081;50.584;7.032;2023-07-13T07:44:54;20.90;98.10
6102;DHT22;3081;50.584;7.032;2023-07-13T07:47:22;20.90;97.00
6102;DHT22;3081;50.584;7.032;2023-07-13T07:49:50;21.00;97.60
6102;DHT22;3081;50.584;7.032;2023-07-13T07:52:16;21.10;96.70
6102;DHT22;3081;50.584;7.032;2023-07-13T07:54:43;21.10;96.60
6102;DHT22;3081;50.584;7.032;2023-07-13T07:57:12;21.10;95.90
6102;DHT22;3081;50.584;7.032;2023-07-13T07:59:39;21.10;95.70
6102;DHT22;3081;50.584;7.032;2023-07-13T08:02:08;21.10;96.50
6102;DHT22;3081;50.584;7.032;2023-07-13T08:04:35;21.20;96.40
6102;DHT22;3081;50.584;7.032;2023-07-13T08:07:02;21.30;96.20
6102;DHT22;3081;50.584;7.032;2023-07-13T08:09:29;21.30;96.00
6102;DHT22;3081;50.584;7.032;2023-07-13T08:11:56;21.40;95.80
6102;DHT22;3081;50.584;7.032;2023-07-13T08:14:24;21.50;94.70
6102;DHT22;3081;50.584;7.032;2023-07-13T08:16:51;21.60;94.60
6102;DHT22;3081;50.584;7.032;2023-07-13T08:19:19;21.60;93.80
6102;DHT22;3081;50.584;7.032;2023-07-13T08:21:46;21.60;94.80
6102;DHT22;3081;50.584;7.032;2023-07-13T08:24:14;21.70;93.60
6102;DHT22;3081;50.584;7.032;2023-07-13T08:26:44;21.80;93.60
6102;DHT22;3081;50.584;7.032;2023-07-13T08:29:11;21.90;92.80
6102;DHT22;3081;50.584;7.032;2023-07-13T08:31:40;22.10;92.80
6102;DHT22;3081;50.584;7.032;2023-07-13T08:34:07;22.40;92.60
6102;DHT22;3081;50.584;7.032;2023-07-13T08:36:33;22.40;91.80
6102;DHT22;3081;50.584;7.032;2023-07-13T08:39:00;22.50;91.70
6102;DHT22;3081;50.584;7.032;2023-07-13T08:41:28;22.50;91.30
6102;DHT22;3081;50.584;7.032;2023-07-13T08:43:58;22.50;91.00
6102;DHT22;3081;50.584;7.032;2023-07-13T08:46:28;22.40;91.00
6102;DHT22;3081;50.584;7.032;2023-07-13T08:49:03;22.50;91.60
6102;DHT22;3081;50.584;7.032;2023-07-13T08:51:36;22.80;90.90
6102;DHT22;3081;50.584;7.032;2023-07-13T08:54:15;23.00;90.00
6102;DHT22;3081;50.584;7.032;2023-07-13T08:56:44;23.10;90.10
6102;DHT22;3081;50.584;7.032;2023-07-13T08:59:14;23.20;89.20
6102;DHT22;3081;50.584;7.032;2023-07-13T09:01:54;23.30;89.20
6102;DHT22;3081;50.584;7.032;2023-07-13T09:04:32;23.30;88.70
6102;DHT22;3081;50.584;7.032;2023-07-13T09:07:05;23.50;87.70
6102;DHT22;3081;50.584;7.032;2023-07-13T09:09:43;23.60;86.60
6102;DHT22;3081;50.584;7.032;2023-07-13T09:12:17;23.70;86.90
6102;DHT22;3081;50.584;7.032;2023-07-13T09:14:47;23.90;86.70
6102;DHT22;3081;50.584;7.032;2023-07-13T09:17:18;24.20;86.00
6102;DHT22;3081;50.584;7.032;2023-07-13T09:19:50;24.40;85.00
6102;DHT22;3081;50.584;7.032;2023-07-13T09:22:20;24.50;82.90
6102;DHT22;3081;50.584;7.032;2023-07-13T09:24:54;24.60;82.80
6102;DHT22;3081;50.584;7.032;2023-07-13T09:27:24;24.60;82.20
6102;DHT22;3081;50.584;7.032;2023-07-13T09:30:01;24.40;82.10
6102;DHT22;3081;50.584;7.032;2023-07-13T09:32:31;24.50;82.50
6102;DHT22;3081;50.584;7.032;2023-07-13T09:35:00;24.90;83.20
6102;DHT22;3081;50.584;7.032;2023-07-13T09:37:31;25.40;82.20
6102;DHT22;3081;50.584;7.032;2023-07-13T09:40:00;25.60;79.80
6102;DHT22;3081;50.584;7.032;2023-07-13T09:42:30;25.60;80.20
6102;DHT22;3081;50.584;7.032;2023-07-13T09:45:01;25.80;79.50
6102;DHT22;3081;50.584;7.032;2023-07-13T09:47:30;25.50;79.40
6102;DHT22;3081;50.584;7.032;2023-07-13T09:50:00;25.00;78.70
6102;DHT22;3081;50.584;7.032;2023-07-13T09:52:40;24.80;79.00
6102;DHT22;3081;50.584;7.032;2023-07-13T09:55:24;24.60;75.00
6102;DHT22;3081;50.584;7.032;2023-07-13T09:57:52;24.00;73.60
6102;DHT22;3081;50.584;7.032;2023-07-13T10:00:22;23.60;75.80
6102;DHT22;3081;50.584;7.032;2023-07-13T10:02:59;23.50;76.60
6102;DHT22;3081;50.584;7.032;2023-07-13T10:05:27;23.70;76.20
6102;DHT22;3081;50.584;7.032;2023-07-13T10:07:56;23.60;76.80
6102;DHT22;3081;50.584;7.032;2023-07-13T10:10:23;23.90;78.10
6102;DHT22;3081;50.584;7.032;2023-07-13T10:12:50;25.10;75.30
6102;DHT22;3081;50.584;7.032;2023-07-13T10:15:19;25.60;73.70
6102;DHT22;3081;50.584;7.032;2023-07-13T10:17:47;25.40;73.10
6102;DHT22;3081;50.584;7.032;2023-07-13T10:20:15;25.10;72.70
6102;DHT22;3081;50.584;7.032;2023-07-13T10:22:45;24.60;73.90
6102;DHT22;3081;50.584;7.032;2023-07-13T10:25:18;24.70;75.00
6102;DHT22;3081;50.584;7.032;2023-07-13T10:27:46;25.10;74.20
6102;DHT22;3081;50.584;7.032;2023-07-13T10:30:17;26.10;72.30
6102;DHT22;3081;50.584;7.032;2023-07-13T10:32:46;27.00;70.10
6102;DHT22;3081;50.584;7.032;2023-07-13T10:35:15;27.40;69.90
6102;DHT22;3081;50.584;7.032;2023-07-13T10:37:49;27.50;70.10
6102;DHT22;3081;50.584;7.032;2023-07-13T10:40:19;28.10;70.00
6102;DHT22;3081;50.584;7.032;2023-07-13T10:42:50;28.80;68.50
6102;DHT22;3081;50.584;7.032;2023-07-13T10:45:20;28.50;67.70
6102;DHT22;3081;50.584;7.032;2023-07-13T10:47:49;27.00;68.60
6102;DHT22;3081;50.584;7.032;2023-07-13T10:50:20;26.10;71.20
6102;DHT22;3081;50.584;7.032;2023-07-13T10:52:50;25.60;72.70
6102;DHT22;3081;50.584;7.032;2023-07-13T10:55:38;25.20;72.20
6102;DHT22;3081;50.584;7.032;2023-07-13T10:58:14;25.10;71.80
6102;DHT22;3081;50.584;7.032;2023-07-13T11:00:48;25.70;71.70
6102;DHT22;3081;50.584;7.032;2023-07-13T11:03:19;26.80;68.30
6102;DHT22;3081;50.584;7.032;2023-07-13T11:05:49;27.20;67.60
6102;DHT22;3081;50.584;7.032;2023-07-13T11:08:31;26.80;68.20
6102;DHT22;3081;50.584;7.032;2023-07-13T11:10:59;26.10;69.40
6102;DHT22;3081;50.584;7.032;2023-07-13T11:13:57;25.70;70.00
6102;DHT22;3081;50.584;7.032;2023-07-13T11:16:46;25.50;70.60
6102;DHT22;3081;50.584;7.032;2023-07-13T11:19:41;25.20;70.80
6102;DHT22;3081;50.584;7.032;2023-07-13T11:22:23;25.10;71.00
6102;DHT22;3081;50.584;7.032;2023-07-13T11:25:00;25.00;71.30
6102;DHT22;3081;50.584;7.032;2023-07-13T11:27:36;25.00;71.30
6102;DHT22;3081;50.584;7.032;2023-07-13T11:32:52;24.90;69.90
6102;DHT22;3081;50.584;7.032;2023-07-13T11:35:28;25.00;70.10
6102;DHT22;3081;50.584;7.032;2023-07-13T11:37:56;25.10;69.70
6102;DHT22;3081;50.584;7.032;2023-07-13T11:40:26;25.00;69.80
6102;DHT22;3081;50.584;7.032;2023-07-13T11:42:59;24.90;69.80
6102;DHT22;3081;50.584;7.032;2023-07-13T11:45:27;24.90;70.80
6102;DHT22;3081;50.584;7.032;2023-07-13T11:47:54;24.70;70.30
6102;DHT22;3081;50.584;7.032;2023-07-13T11:50:24;24.40;70.80
6102;DHT22;3081;50.584;7.032;2023-07-13T11:52:51;24.30;71.80
6102;DHT22;3081;50.584;7.032;2023-07-13T11:55:21;24.20;72.00
6102;DHT22;3081;50.584;7.032;2023-07-13T11:57:56;24.00;73.10
6102;DHT22;3081;50.584;7.032;2023-07-13T12:00:26;24.10;74.90
6102;DHT22;3081;50.584;7.032;2023-07-13T12:02:57;24.10;76.10
6102;DHT22;3081;50.584;7.032;2023-07-13T12:05:26;24.20;75.70
6102;DHT22;3081;50.584;7.032;2023-07-13T12:07:54;24.20;76.20
6102;DHT22;3081;50.584;7.032;2023-07-13T12:10:22;24.20;76.40
6102;DHT22;3081;50.584;7.032;2023-07-13T12:12:55;24.30;74.50
6102;DHT22;3081;50.584;7.032;2023-07-13T12:15:27;24.20;71.80
6102;DHT22;3081;50.584;7.032;2023-07-13T12:17:56;24.10;72.60
6102;DHT22;3081;50.584;7.032;2023-07-13T12:20:28;23.90;73.40
6102;DHT22;3081;50.584;7.032;2023-07-13T12:22:56;23.80;73.20
6102;DHT22;3081;50.584;7.032;2023-07-13T12:25:24;23.40;74.50
6102;DHT22;3081;50.584;7.032;2023-07-13T12:27:53;23.30;75.50
6102;DHT22;3081;50.584;7.032;2023-07-13T12:30:28;23.10;75.80
6102;DHT22;3081;50.584;7.032;2023-07-13T12:32:58;23.10;76.20
6102;DHT22;3081;50.584;7.032;2023-07-13T12:35:27;23.20;76.20
6102;DHT22;3081;50.584;7.032;2023-07-13T12:37:57;23.40;76.40
6102;DHT22;3081;50.584;7.032;2023-07-13T12:40:29;23.40;76.40
6102;DHT22;3081;50.584;7.032;2023-07-13T12:43:01;23.40;75.70
6102;DHT22;3081;50.584;7.032;2023-07-13T12:45:30;23.50;75.70
6102;DHT22;3081;50.584;7.032;2023-07-13T12:47:58;23.60;75.40
6102;DHT22;3081;50.584;7.032;2023-07-13T12:50:33;23.70;76.10
6102;DHT22;3081;50.584;7.032;2023-07-13T12:53:03;23.80;76.90
6102;DHT22;3081;50.584;7.032;2023-07-13T12:55:41;24.10;76.00
6102;DHT22;3081;50.584;7.032;2023-07-13T12:58:17;24.20;75.80
6102;DHT22;3081;50.584;7.032;2023-07-13T13:00:49;24.30;76.20
6102;DHT22;3081;50.584;7.032;2023-07-13T13:03:22;24.50;75.40
6102;DHT22;3081;50.584;7.032;2023-07-13T13:05:57;24.70;75.90
6102;DHT22;3081;50.584;7.032;2023-07-13T13:08:25;24.70;76.40
6102;DHT22;3081;50.584;7.032;2023-07-13T13:10:52;24.80;76.90
6102;DHT22;3081;50.584;7.032;2023-07-13T13:13:21;24.90;77.20
6102;DHT22;3081;50.584;7.032;2023-07-13T13:15:48;25.00;75.50
6102;DHT22;3081;50.584;7.032;2023-07-13T13:18:16;24.80;76.20
6102;DHT22;3081;50.584;7.032;2023-07-13T13:20:43;24.70;76.90
6102;DHT22;3081;50.584;7.032;2023-07-13T13:23:13;24.60;77.40
6102;DHT22;3081;50.584;7.032;2023-07-13T13:25:43;24.70;77.40
6102;DHT22;3081;50.584;7.032;2023-07-13T13:28:14;24.50;75.40
6102;DHT22;3081;50.584;7.032;2023-07-13T13:30:43;24.30;76.10
6102;DHT22;3081;50.584;7.032;2023-07-13T13:33:12;24.20;76.30
6102;DHT22;3081;50.584;7.032;2023-07-13T13:35:40;24.20;77.30
6102;DHT22;3081;50.584;7.032;2023-07-13T13:38:12;24.30;76.10
6102;DHT22;3081;50.584;7.032;2023-07-13T13:40:41;24.40;77.10
6102;DHT22;3081;50.584;7.032;2023-07-13T13:43:15;24.40;75.60
6102;DHT22;3081;50.584;7.032;2023-07-13T13:45:45;24.30;74.90
6102;DHT22;3081;50.584;7.032;2023-07-13T13:48:15;24.30;75.80
6102;DHT22;3081;50.584;7.032;2023-07-13T13:50:43;24.60;75.40
6102;DHT22;3081;50.584;7.032;2023-07-13T13:53:12;25.00;74.60
6102;DHT22;3081;50.584;7.032;2023-07-13T13:55:39;25.40;73.00
6102;DHT22;3081;50.584;7.032;2023-07-13T13:58:08;25.40;70.80
6102;DHT22;3081;50.584;7.032;2023-07-13T14:00:35;25.70;71.40
6102;DHT22;3081;50.584;7.032;2023-07-13T14:03:04;26.10;70.10
6102;DHT22;3081;50.584;7.032;2023-07-13T14:05:32;25.80;70.60
6102;DHT22;3081;50.584;7.032;2023-07-13T14:07:59;25.90;71.40
6102;DHT22;3081;50.584;7.032;2023-07-13T14:10:26;26.50;71.30
6102;DHT22;3081;50.584;7.032;2023-07-13T14:12:55;27.00;69.00
6102;DHT22;3081;50.584;7.032;2023-07-13T14:15:24;27.20;68.60
6102;DHT22;3081;50.584;7.032;2023-07-13T14:17:52;26.80;68.30
6102;DHT22;3081;50.584;7.032;2023-07-13T14:20:22;26.50;68.70
6102;DHT22;3081;50.584;7.032;2023-07-13T14:22:50;26.50;69.30
6102;DHT22;3081;50.584;7.032;2023-07-13T14:25:18;27.00;69.30
6102;DHT22;3081;50.584;7.032;2023-07-13T14:27:48;27.30;67.20
6102;DHT22;3081;50.584;7.032;2023-07-13T14:30:17;27.80;66.90
6102;DHT22;3081;50.584;7.032;2023-07-13T14:32:45;28.10;65.70
6102;DHT22;3081;50.584;7.032;2023-07-13T14:35:13;28.80;64.40
6102;DHT22;3081;50.584;7.032;2023-07-13T14:37:43;28.40;63.90
6102;DHT22;3081;50.584;7.032;2023-07-13T14:40:14;28.50;64.70
6102;DHT22;3081;50.584;7.032;2023-07-13T14:42:41;29.00;63.70
6102;DHT22;3081;50.584;7.032;2023-07-13T14:45:13;30.20;61.80
6102;DHT22;3081;50.584;7.032;2023-07-13T14:47:40;30.50;60.20
6102;DHT22;3081;50.584;7.032;2023-07-13T14:50:13;30.20;59.90
6102;DHT22;3081;50.584;7.032;2023-07-13T14:52:43;30.40;59.90
6102;DHT22;3081;50.584;7.032;2023-07-13T14:55:11;29.70;60.10
6102;DHT22;3081;50.584;7.032;2023-07-13T14:57:39;29.50;61.90
6102;DHT22;3081;50.584;7.032;2023-07-13T15:00:13;30.60;61.30
6102;DHT22;3081;50.584;7.032;2023-07-13T15:02:41;32.40;57.80
6102;DHT22;3081;50.584;7.032;2023-07-13T15:05:13;31.50;57.80
6102;DHT22;3081;50.584;7.032;2023-07-13T15:07:42;30.80;58.70
6102;DHT22;3081;50.584;7.032;2023-07-13T15:10:14;31.90;58.70
6102;DHT22;3081;50.584;7.032;2023-07-13T15:12:41;33.10;56.70
6102;DHT22;3081;50.584;7.032;2023-07-13T15:15:08;34.80;54.50
6102;DHT22;3081;50.584;7.032;2023-07-13T15:17:37;35.70;52.40
6102;DHT22;3081;50.584;7.032;2023-07-13T15:20:13;35.70;52.10
6102;DHT22;3081;50.584;7.032;2023-07-13T15:22:43;34.90;51.70
6102;DHT22;3081;50.584;7.032;2023-07-13T15:25:16;33.90;52.40
6102;DHT22;3081;50.584;7.032;2023-07-13T15:27:44;32.10;54.80
6102;DHT22;3081;50.584;7.032;2023-07-13T15:30:12;30.60;56.90
6102;DHT22;3081;50.584;7.032;2023-07-13T15:32:40;30.50;58.90
6102;DHT22;3081;50.584;7.032;2023-07-13T15:35:13;31.50;56.20
6102;DHT22;3081;50.584;7.032;2023-07-13T15:37:42;30.80;57.10
6102;DHT22;3081;50.584;7.032;2023-07-13T15:40:10;30.30;58.40
6102;DHT22;3081;50.584;7.032;2023-07-13T15:42:38;30.30;58.30
6102;DHT22;3081;50.584;7.032;2023-07-13T15:45:15;32.60;58.00
6102;DHT22;3081;50.584;7.032;2023-07-13T15:47:42;34.30;54.30
6102;DHT22;3081;50.584;7.032;2023-07-13T15:50:12;32.90;53.50
6102;DHT22;3081;50.584;7.032;2023-07-13T15:52:40;30.70;55.80
6102;DHT22;3081;50.584;7.032;2023-07-13T15:55:11;28.80;59.20
6102;DHT22;3081;50.584;7.032;2023-07-13T15:57:39;27.80;61.30
6102;DHT22;3081;50.584;7.032;2023-07-13T16:00:20;27.20;62.40
6102;DHT22;3081;50.584;7.032;2023-07-13T16:02:47;27.00;63.20
6102;DHT22;3081;50.584;7.032;2023-07-13T16:05:15;29.20;62.60
6102;DHT22;3081;50.584;7.032;2023-07-13T16:07:43;32.50;56.90
6102;DHT22;3081;50.584;7.032;2023-07-13T16:10:15;34.60;54.50
6102;DHT22;3081;50.584;7.032;2023-07-13T16:12:43;35.60;52.30
6102;DHT22;3081;50.584;7.032;2023-07-13T16:15:13;36.30;50.90
6102;DHT22;3081;50.584;7.032;2023-07-13T16:17:42;34.90;51.40